Time;durP1;ratioP1;P1;durP2;ratioP2;P2;SDS_P1;SDS_P2;PMS_P1;PMS_P2;Temp;Humidity;BMP_temperature;BMP_pressure;BME280_temperature;BME280_humidity;BME280_pressure;Samples;Min_cycle;Max_cycle;Signal;HPM_P1;HPM_P2
2023/07/29 00:02:00;;;;;;;3.50;1.60;;;17.30;99.90;;;;;;5008776;28;20396;-79
2023/07/29 00:04:26;;;;;;;3.40;1.40;;;17.30;99.90;;;;;;4990006;28;20386;-79
2023/07/29 00:06:51;;;;;;;1.87;1.53;;;17.30;99.90;;;;;;4991890;28;20405;-79
2023/07/29 00:09:17;;;;;;;1.50;1.33;;;17.30;99.90;;;;;;4991963;28;20447;-79
2023/07/29 00:11:42;;;;;;;2.03;1.40;;;17.30;99.90;;;;;;4991329;28;20387;-82
2023/07/29 00:14:08;;;;;;;2.07;1.40;;;17.30;99.90;;;;;;4992016;28;20508;-79
2023/07/29 00:16:33;;;;;;;1.55;1.45;;;17.40;99.90;;;;;;5006467;28;20396;-80
2023/07/29 00:18:59;;;;;;;2.10;1.50;;;17.40;99.90;;;;;;5014247;28;20478;-79
2023/07/29 00:21:25;;;;;;;2.40;1.50;;;17.40;99.90;;;;;;5015018;28;20385;-79
2023/07/29 00:23:50;;;;;;;1.90;1.50;;;17.30;99.90;;;;;;5015563;28;20381;-80
2023/07/29 00:26:16;;;;;;;2.27;1.50;;;17.30;99.90;;;;;;5014692;28;20392;-80
2023/07/29 00:28:41;;;;;;;2.80;1.50;;;17.30;99.90;;;;;;5015472;28;20393;-79
2023/07/29 00:31:07;;;;;;;3.10;1.60;;;17.30;99.90;;;;;;5009943;28;20450;-79
2023/07/29 00:33:32;;;;;;;2.40;1.50;;;17.40;99.90;;;;;;4996448;28;20485;-79
2023/07/29 00:36:01;;;;;;;2.60;1.30;;;17.40;99.90;;;;;;4997526;28;20832;-79
2023/07/29 00:38:27;;;;;;;2.17;1.50;;;17.30;99.90;;;;;;4997290;28;20378;-79
2023/07/29 00:40:52;;;;;;;2.90;1.30;;;17.40;99.90;;;;;;4994959;28;20397;-80
2023/07/29 00:43:18;;;;;;;3.00;1.40;;;17.30;99.90;;;;;;4995558;28;20413;-80
2023/07/29 00:45:44;;;;;;;1.40;1.30;;;17.30;99.90;;;;;;5003209;28;20400;-80
2023/07/29 00:48:10;;;;;;;1.65;1.30;;;17.30;99.90;;;;;;5014764;28;20476;-81
2023/07/29 00:50:36;;;;;;;2.97;1.30;;;17.40;99.90;;;;;;5014095;28;20413;-79
2023/07/29 00:53:01;;;;;;;1.80;1.60;;;17.30;99.90;;;;;;5013031;28;20425;-80
2023/07/29 00:55:28;;;;;;;1.40;1.30;;;17.40;99.90;;;;;;5014805;28;20509;-80
2023/07/29 00:57:54;;;;;;;1.50;1.40;;;17.30;99.90;;;;;;5015212;28;20397;-80
2023/07/29 01:00:21;;;;;;;3.70;1.30;;;17.60;99.90;;;;;;5010199;28;20466;-80
2023/07/29 01:02:46;;;;;;;3.15;1.45;;;17.40;99.90;;;;;;5008508;28;20852;-79
2023/07/29 01:05:15;;;;;;;2.00;1.27;;;17.30;99.90;;;;;;5015469;28;20388;-79
2023/07/29 01:07:56;;;;;;;2.63;1.63;;;17.40;99.90;;;;;;5013725;28;20400;-80
2023/07/29 01:10:41;;;;;;;1.90;1.30;;;17.30;99.90;;;;;;5015203;28;20432;-79
2023/07/29 01:13:14;;;;;;;2.30;1.40;;;17.30;99.90;;;;;;4997705;28;20430;-80
2023/07/29 01:15:57;;;;;;;3.10;1.50;;;17.30;99.90;;;;;;4995051;28;20390;-79
2023/07/29 01:18:26;;;;;;;2.28;1.42;;;17.30;99.90;;;;;;5004666;28;20493;-80
2023/07/29 01:20:56;;;;;;;2.30;1.13;;;17.30;99.90;;;;;;4993576;28;20440;-80
2023/07/29 01:23:25;;;;;;;1.60;1.40;;;17.30;99.90;;;;;;4994280;28;20429;-79
2023/07/29 01:25:51;;;;;;;2.03;1.40;;;17.30;99.90;;;;;;4994675;28;20426;-80
2023/07/29 01:28:16;;;;;;;1.70;1.48;;;17.30;99.90;;;;;;5008290;28;20404;-79
2023/07/29 01:30:44;;;;;;;2.93;1.20;;;17.30;99.90;;;;;;5013763;28;20440;-80
2023/07/29 01:33:26;;;;;;;2.05;1.30;;;17.30;99.90;;;;;;5007363;28;20394;-80
2023/07/29 01:36:02;;;;;;;1.30;1.20;;;17.30;99.90;;;;;;4994159;28;20386;-79
2023/07/29 01:38:33;;;;;;;1.30;1.20;;;17.30;99.90;;;;;;4994915;28;20445;-80
2023/07/29 01:41:01;;;;;;;1.40;1.20;;;17.20;99.90;;;;;;4994040;28;20473;-80
2023/07/29 01:43:30;;;;;;;2.90;1.20;;;17.20;99.90;;;;;;4997236;28;20398;-80
2023/07/29 01:45:56;;;;;;;1.55;1.20;;;17.20;99.90;;;;;;4993548;28;20394;-80
2023/07/29 01:48:22;;;;;;;1.65;1.30;;;17.20;99.90;;;;;;4994008;28;20406;-79
2023/07/29 01:50:47;;;;;;;1.30;1.20;;;17.20;99.90;;;;;;4992432;28;20489;-79
2023/07/29 01:53:13;;;;;;;2.00;1.63;;;17.20;99.90;;;;;;4993192;28;20430;-79
2023/07/29 01:55:39;;;;;;;3.67;1.50;;;17.30;99.90;;;;;;5004993;28;20400;-79
2023/07/29 01:58:04;;;;;;;1.40;1.23;;;17.30;99.90;;;;;;5013326;28;20389;-79
2023/07/29 02:00:30;;;;;;;4.43;1.50;;;17.30;99.90;;;;;;5012106;28;20393;-79
2023/07/29 02:02:55;;;;;;;1.60;1.50;;;17.30;99.90;;;;;;5012943;28;20389;-79
2023/07/29 02:05:21;;;;;;;1.38;1.17;;;17.30;99.90;;;;;;5012971;28;20885;-79
2023/07/29 02:07:47;;;;;;;1.30;1.07;;;17.30;99.90;;;;;;4992173;28;20403;-80
2023/07/29 02:10:12;;;;;;;4.55;1.55;;;17.30;99.90;;;;;;4993282;28;20905;-79
2023/07/29 02:12:38;;;;;;;2.10;1.20;;;17.30;99.90;;;;;;4999037;28;20401;-80
2023/07/29 02:15:04;;;;;;;2.70;1.30;;;17.40;99.90;;;;;;5013099;28;20401;-80
2023/07/29 02:17:31;;;;;;;2.00;1.20;;;17.30;99.90;;;;;;5012957;28;20511;-79
2023/07/29 02:19:56;;;;;;;1.40;1.30;;;17.30;99.90;;;;;;5013153;28;20414;-80
2023/07/29 02:22:22;;;;;;;1.33;1.10;;;17.30;99.90;;;;;;5009434;28;20407;-80
2023/07/29 02:24:47;;;;;;;2.38;1.10;;;17.30;99.90;;;;;;4993530;28;20433;-81
2023/07/29 02:27:13;;;;;;;1.40;1.30;;;17.30;99.90;;;;;;5007960;28;20401;-80
2023/07/29 02:29:38;;;;;;;1.80;1.35;;;17.40;99.90;;;;;;5013042;28;20412;-81
2023/07/29 02:32:04;;;;;;;2.70;1.30;;;17.40;99.90;;;;;;5012439;28;20796;-81
2023/07/29 02:34:30;;;;;;;1.60;1.40;;;17.40;99.90;;;;;;4994558;28;20394;-81
2023/07/29 02:36:56;;;;;;;1.67;1.27;;;17.40;99.90;;;;;;4992914;28;20490;-81
2023/07/29 02:39:21;;;;;;;1.27;1.00;;;17.40;99.90;;;;;;4993340;28;20462;-80
2023/07/29 02:41:47;;;;;;;3.30;1.23;;;17.40;99.90;;;;;;4996383;28;20392;-81
2023/07/29 02:44:12;;;;;;;6.13;1.70;;;17.40;99.90;;;;;;5012743;28;20436;-80
2023/07/29 02:46:38;;;;;;;3.25;1.30;;;17.40;99.90;;;;;;5011371;28;20429;-80
2023/07/29 02:49:04;;;;;;;1.30;1.10;;;17.70;99.90;;;;;;5011388;28;20393;-80
2023/07/29 02:51:30;;;;;;;1.60;1.30;;;17.40;99.90;;;;;;5012218;28;20880;-80
2023/07/29 02:53:56;;;;;;;3.72;1.40;;;17.40;99.90;;;;;;5012546;28;20395;-80
2023/07/29 02:56:21;;;;;;;1.20;1.10;;;17.30;99.90;;;;;;4999890;28;20394;-81
2023/07/29 02:58:47;;;;;;;3.20;1.50;;;17.30;99.90;;;;;;4992814;28;20386;-81
2023/07/29 03:01:13;;;;;;;1.42;1.33;;;17.30;99.90;;;;;;4992325;28;20770;-80
2023/07/29 03:03:39;;;;;;;1.60;1.23;;;17.30;99.90;;;;;;4992597;28;20396;-81
2023/07/29 03:06:07;;;;;;;1.63;1.52;;;17.40;99.90;;;;;;4991502;28;20443;-80
2023/07/29 03:08:33;;;;;;;1.38;1.27;;;17.40;99.90;;;;;;5005842;28;20412;-81
2023/07/29 03:10:59;;;;;;;4.15;1.48;;;17.40;99.90;;;;;;5010543;28;20404;-80
2023/07/29 03:13:24;;;;;;;2.03;1.70;;;17.40;99.90;;;;;;5011131;28;20403;-81
2023/07/29 03:15:50;;;;;;;2.20;1.40;;;17.40;99.90;;;;;;5012224;28;20470;-81
2023/07/29 03:18:15;;;;;;;2.70;1.30;;;17.40;99.90;;;;;;5012357;28;20377;-80
2023/07/29 03:20:41;;;;;;;2.72;1.15;;;17.40;99.90;;;;;;5011700;28;20453;-81
2023/07/29 03:23:07;;;;;;;2.00;1.20;;;17.50;99.90;;;;;;5009396;28;20410;-80
2023/07/29 03:25:32;;;;;;;2.10;1.40;;;17.40;99.90;;;;;;4991478;28;20397;-81
2023/07/29 03:27:58;;;;;;;2.60;1.30;;;17.40;99.90;;;;;;4993393;28;20413;-80
2023/07/29 03:30:24;;;;;;;5.38;1.30;;;17.40;99.90;;;;;;5006188;28;20422;-80
2023/07/29 03:32:50;;;;;;;2.00;1.20;;;17.40;99.90;;;;;;5005425;28;21028;-80
2023/07/29 03:35:15;;;;;;;4.18;1.40;;;17.40;99.90;;;;;;4997421;28;20429;-81
2023/07/29 03:37:41;;;;;;;2.27;1.50;;;17.40;99.90;;;;;;4993579;28;20382;-81
2023/07/29 03:40:09;;;;;;;1.80;1.40;;;17.40;99.90;;;;;;5008214;28;20888;-81
2023/07/29 03:42:35;;;;;;;3.92;1.50;;;17.40;99.90;;;;;;5012059;28;20392;-81
2023/07/29 03:45:00;;;;;;;1.75;1.50;;;17.40;99.90;;;;;;5012733;28;20403;-81
2023/07/29 03:47:26;;;;;;;2.20;1.40;;;17.40;99.90;;;;;;5012842;28;20393;-81
2023/07/29 03:49:54;;;;;;;3.00;1.50;;;17.50;99.90;;;;;;5011253;28;21384;-80
2023/07/29 03:52:19;;;;;;;2.60;1.40;;;17.40;99.90;;;;;;5013480;28;20467;-81
2023/07/29 03:54:45;;;;;;;1.90;1.20;;;17.40;99.90;;;;;;5016242;28;20385;-81
2023/07/29 03:57:11;;;;;;;6.32;1.70;;;17.40;99.90;;;;;;5016377;28;20808;-80
2023/07/29 03:59:37;;;;;;;1.33;1.23;;;17.40;99.90;;;;;;4999090;28;20421;-80
2023/07/29 04:02:03;;;;;;;1.50;1.35;;;17.40;99.90;;;;;;4995042;28;20386;-80
2023/07/29 04:04:28;;;;;;;1.67;1.58;;;17.40;99.90;;;;;;4996294;28;20397;-81
2023/07/29 04:06:54;;;;;;;1.67;1.40;;;17.40;99.90;;;;;;4997315;28;20390;-80
2023/07/29 04:09:19;;;;;;;3.00;1.70;;;17.40;99.90;;;;;;4997825;28;20401;-82
2023/07/29 04:11:45;;;;;;;1.50;1.40;;;17.40;99.90;;;;;;4998175;28;20379;-81
2023/07/29 04:14:10;;;;;;;2.20;1.70;;;17.40;99.90;;;;;;5002737;28;20405;-81
2023/07/29 04:16:36;;;;;;;2.50;1.60;;;17.40;99.90;;;;;;5018528;28;20393;-80
2023/07/29 04:19:01;;;;;;;2.47;1.70;;;17.40;99.90;;;;;;5017435;28;20381;-81
2023/07/29 04:21:27;;;;;;;3.23;1.67;;;17.30;99.90;;;;;;5015962;28;20393;-80
2023/07/29 04:23:52;;;;;;;5.07;1.90;;;17.30;99.90;;;;;;5016825;28;20385;-82
2023/07/29 04:26:18;;;;;;;1.80;1.70;;;17.40;99.90;;;;;;5017507;28;20452;-81
2023/07/29 04:28:43;;;;;;;2.53;1.75;;;17.40;99.90;;;;;;5017447;28;20396;-81
2023/07/29 04:31:09;;;;;;;1.80;1.70;;;17.40;99.90;;;;;;5011165;28;20410;-81
2023/07/29 04:33:34;;;;;;;2.40;1.40;;;17.50;99.90;;;;;;4997682;28;20390;-81
2023/07/29 04:36:00;;;;;;;2.88;1.65;;;17.60;99.90;;;;;;4997195;28;20387;-81
2023/07/29 04:38:31;;;;;;;2.20;1.50;;;17.60;99.90;;;;;;4997195;28;20394;-80
2023/07/29 04:40:57;;;;;;;3.20;1.60;;;17.60;99.90;;;;;;4995337;28;20395;-82
2023/07/29 04:43:22;;;;;;;2.70;1.70;;;17.70;99.90;;;;;;4995247;28;20481;-81
2023/07/29 04:45:48;;;;;;;3.10;1.50;;;17.70;99.90;;;;;;4995420;28;20390;-81
2023/07/29 04:48:13;;;;;;;1.83;1.73;;;17.80;99.90;;;;;;4995697;28;20458;-81
2023/07/29 04:50:39;;;;;;;2.50;1.70;;;17.80;99.90;;;;;;4999994;28;20979;-82
2023/07/29 04:53:05;;;;;;;2.10;1.60;;;17.90;99.90;;;;;;5014968;28;20389;-81
2023/07/29 04:55:31;;;;;;;1.50;1.40;;;17.90;99.90;;;;;;5015316;28;20377;-81
2023/07/29 04:57:56;;;;;;;3.20;2.00;;;17.90;99.90;;;;;;5016047;28;20836;-81
2023/07/29 05:00:22;;;;;;;2.57;1.47;;;17.90;99.90;;;;;;5014230;28;20393;-81
2023/07/29 05:02:47;;;;;;;1.90;1.58;;;17.90;99.90;;;;;;5005002;28;20430;-80
2023/07/29 05:05:13;;;;;;;2.30;1.50;;;17.80;99.90;;;;;;4995578;28;20425;-83
2023/07/29 05:07:38;;;;;;;2.33;1.80;;;17.90;99.90;;;;;;5003619;28;20413;-80
2023/07/29 05:10:04;;;;;;;7.13;1.87;;;17.90;99.90;;;;;;4993905;28;20997;-80
2023/07/29 05:12:32;;;;;;;2.50;1.50;;;17.90;99.90;;;;;;4995056;28;20389;-81
2023/07/29 05:14:57;;;;;;;2.17;1.85;;;17.90;99.90;;;;;;4994147;28;20407;-81
2023/07/29 05:17:23;;;;;;;3.70;1.80;;;17.90;99.90;;;;;;4997113;28;20770;-81
2023/07/29 05:19:48;;;;;;;3.60;1.60;;;17.90;99.90;;;;;;5015533;28;20384;-80
2023/07/29 05:22:14;;;;;;;3.13;1.70;;;17.90;99.90;;;;;;5014344;28;20388;-81
2023/07/29 05:24:40;;;;;;;1.70;1.60;;;18.00;99.90;;;;;;5013355;28;20389;-80
2023/07/29 05:27:05;;;;;;;2.20;1.60;;;18.10;99.90;;;;;;5000155;28;20426;-81
2023/07/29 05:29:31;;;;;;;2.30;1.80;;;18.10;99.90;;;;;;4993210;28;20505;-81
2023/07/29 05:31:57;;;;;;;2.00;1.80;;;18.10;99.90;;;;;;4994745;28;20386;-80
2023/07/29 05:34:22;;;;;;;1.90;1.80;;;18.10;99.90;;;;;;4994201;28;21046;-82
2023/07/29 05:36:48;;;;;;;3.15;1.60;;;18.20;99.90;;;;;;4994516;28;20545;-81
2023/07/29 05:39:13;;;;;;;3.60;2.10;;;18.30;99.90;;;;;;4994224;28;20422;-81
2023/07/29 05:41:39;;;;;;;3.37;2.00;;;18.30;99.90;;;;;;4993988;28;20882;-81
2023/07/29 05:44:05;;;;;;;1.92;1.83;;;18.30;99.90;;;;;;5001559;28;20396;-81
2023/07/29 05:46:30;;;;;;;3.20;1.60;;;18.40;99.90;;;;;;5013573;28;20766;-80
2023/07/29 05:48:56;;;;;;;2.27;1.87;;;18.40;99.90;;;;;;5012430;28;20377;-80
2023/07/29 05:51:21;;;;;;;3.03;1.65;;;18.50;99.90;;;;;;5013134;28;20408;-80
2023/07/29 05:53:47;;;;;;;1.97;1.87;;;18.60;99.90;;;;;;5012955;28;20401;-80
2023/07/29 05:56:12;;;;;;;1.70;1.60;;;18.90;99.90;;;;;;5004513;28;20982;-81
2023/07/29 05:58:38;;;;;;;3.83;2.00;;;19.20;99.90;;;;;;4994120;28;20445;-80
2023/07/29 06:01:03;;;;;;;1.60;1.50;;;19.60;99.90;;;;;;4992453;28;20441;-81
2023/07/29 06:03:29;;;;;;;1.80;1.60;;;19.80;99.90;;;;;;4994411;28;20405;-80
2023/07/29 06:05:54;;;;;;;2.03;1.67;;;20.00;99.90;;;;;;4993219;28;20397;-81
2023/07/29 06:08:20;;;;;;;1.73;1.40;;;20.10;99.90;;;;;;4999470;28;20949;-81
2023/07/29 06:10:45;;;;;;;4.40;1.80;;;20.10;99.90;;;;;;5013694;28;20409;-82
2023/07/29 06:13:11;;;;;;;1.80;1.70;;;20.20;99.90;;;;;;5014053;28;21011;-81
2023/07/29 06:15:36;;;;;;;2.40;1.63;;;20.40;99.90;;;;;;5013712;28;20415;-81
2023/07/29 06:18:02;;;;;;;1.93;1.80;;;20.60;99.90;;;;;;5013903;28;20385;-82
2023/07/29 06:20:28;;;;;;;2.30;1.60;;;20.70;99.90;;;;;;5012954;28;20396;-82
2023/07/29 06:22:54;;;;;;;2.70;1.50;;;21.00;99.90;;;;;;4996969;28;20906;-82
2023/07/29 06:25:19;;;;;;;2.27;1.50;;;21.00;99.90;;;;;;4994247;28;20441;-81
2023/07/29 06:27:45;;;;;;;1.70;1.60;;;20.90;99.90;;;;;;4993884;28;20394;-80
2023/07/29 06:30:10;;;;;;;1.80;1.70;;;20.90;99.90;;;;;;4993336;28;20410;-81
2023/07/29 06:32:36;;;;;;;1.70;1.40;;;21.00;99.90;;;;;;5006998;28;20392;-81
2023/07/29 06:35:01;;;;;;;1.80;1.70;;;21.10;99.90;;;;;;5000147;28;20402;-81
2023/07/29 06:37:27;;;;;;;2.00;1.70;;;21.20;99.90;;;;;;5008434;28;20393;-81
2023/07/29 06:39:53;;;;;;;2.10;1.90;;;21.20;99.90;;;;;;4994404;28;20410;-80
2023/07/29 06:42:18;;;;;;;2.20;1.60;;;21.10;99.90;;;;;;4993782;28;20453;-81
2023/07/29 06:44:45;;;;;;;4.03;2.00;;;21.00;99.90;;;;;;4999755;28;20398;-84
2023/07/29 06:47:11;;;;;;;8.93;2.53;;;20.20;99.90;;;;;;5008115;28;20421;-81
2023/07/29 06:49:37;;;;;;;3.00;1.92;;;19.40;99.90;;;;;;5001554;28;20414;-83
2023/07/29 06:52:02;;;;;;;2.60;2.40;;;19.10;99.90;;;;;;5001374;28;20395;-83
2023/07/29 06:54:28;;;;;;;3.78;2.30;;;18.90;99.90;;;;;;5005358;28;20382;-84
2023/07/29 06:56:54;;;;;;;3.33;2.10;;;18.80;99.90;;;;;;5006164;28;20722;-84
2023/07/29 06:59:19;;;;;;;2.90;2.10;;;18.70;99.90;;;;;;5010178;28;20396;-85
2023/07/29 07:01:45;;;;;;;3.60;2.30;;;18.70;99.90;;;;;;5020323;28;20406;-85
2023/07/29 07:04:10;;;;;;;2.65;2.45;;;18.90;99.90;;;;;;5003905;28;20393;-85
2023/07/29 07:06:36;;;;;;;2.60;2.40;;;19.00;99.90;;;;;;5004256;28;20398;-84
2023/07/29 07:09:01;;;;;;;2.70;2.50;;;19.10;99.90;;;;;;5004424;28;20394;-85
2023/07/29 07:11:27;;;;;;;2.93;2.57;;;19.00;99.90;;;;;;5002560;28;20414;-84
2023/07/29 07:13:52;;;;;;;2.50;2.30;;;19.00;99.90;;;;;;5002440;28;20414;-84
2023/07/29 07:16:18;;;;;;;3.27;2.50;;;19.10;99.90;;;;;;5007478;28;20390;-86
2023/07/29 07:18:43;;;;;;;2.85;2.58;;;19.20;99.90;;;;;;5013599;28;20420;-86
2023/07/29 07:21:09;;;;;;;2.50;2.30;;;19.20;99.90;;;;;;5031231;28;20408;-83
2023/07/29 07:23:35;;;;;;;2.70;2.20;;;19.20;99.90;;;;;;5024343;28;20412;-85
2023/07/29 07:26:00;;;;;;;3.25;2.60;;;19.20;99.90;;;;;;5024431;28;20392;-83
2023/07/29 07:28:26;;;;;;;2.40;2.20;;;19.20;99.90;;;;;;5029033;28;20431;-84
2023/07/29 07:30:51;;;;;;;2.40;2.20;;;19.20;99.90;;;;;;5012366;28;20930;-84
2023/07/29 07:33:17;;;;;;;3.03;1.90;;;19.50;99.90;;;;;;5009993;28;20889;-83
2023/07/29 07:35:42;;;;;;;2.20;2.00;;;19.80;99.90;;;;;;5006008;28;20393;-87
2023/07/29 07:38:09;;;;;;;3.15;2.05;;;19.80;99.90;;;;;;5004429;28;20421;-88
2023/07/29 07:40:35;;;;;;;2.25;1.83;;;21.70;99.90;;;;;;5000022;28;20396;-86
2023/07/29 07:43:01;;;;;;;2.70;2.00;;;20.30;99.90;;;;;;4998550;28;20390;-86
2023/07/29 07:45:27;;;;;;;2.28;2.08;;;20.20;99.90;;;;;;4997940;28;21037;-86
2023/07/29 07:47:56;;;;;;;2.10;1.90;;;20.10;99.90;;;;;;5000350;28;20430;-87
2023/07/29 07:50:21;;;;;;;2.30;2.10;;;20.30;99.90;;;;;;4999724;28;20406;-85
2023/07/29 07:52:47;;;;;;;2.47;2.20;;;20.40;99.90;;;;;;5002731;28;20398;-84
2023/07/29 07:55:12;;;;;;;2.10;1.90;;;20.60;99.90;;;;;;5024907;28;20393;-84
2023/07/29 07:57:38;;;;;;;2.10;1.80;;;20.80;99.90;;;;;;5019940;28;20394;-85
2023/07/29 08:00:04;;;;;;;1.95;1.80;;;20.90;99.90;;;;;;5004593;28;20397;-85
2023/07/29 08:02:30;;;;;;;1.70;1.60;;;21.00;99.90;;;;;;5001508;28;20398;-81
2023/07/29 08:04:55;;;;;;;2.40;1.88;;;21.30;99.90;;;;;;5002185;28;20394;-81
2023/07/29 08:07:21;;;;;;;2.00;1.80;;;21.30;99.90;;;;;;4997426;28;20925;-81
2023/07/29 08:09:47;;;;;;;2.30;2.00;;;21.40;99.90;;;;;;4996307;28;20421;-77
2023/07/29 08:12:12;;;;;;;2.40;1.73;;;21.60;99.90;;;;;;4997727;28;20402;-79
2023/07/29 08:14:38;;;;;;;2.50;1.87;;;21.70;99.90;;;;;;5026513;23;20434;-79
2023/07/29 08:17:04;;;;;;;2.00;1.60;;;21.70;99.90;;;;;;5008523;28;20402;-80
2023/07/29 08:19:29;;;;;;;2.25;1.60;;;21.90;99.90;;;;;;4990195;28;20402;-80
2023/07/29 08:21:55;;;;;;;2.60;2.13;;;22.00;99.90;;;;;;4988390;28;20392;-82
2023/07/29 08:24:20;;;;;;;2.63;2.10;;;22.10;99.90;;;;;;4977881;28;20390;-82
2023/07/29 08:26:46;;;;;;;2.10;1.80;;;21.90;99.90;;;;;;4950536;29;20406;-81
2023/07/29 08:29:12;;;;;;;2.40;2.08;;;22.20;99.90;;;;;;4983993;28;20392;-80
2023/07/29 08:31:38;;;;;;;3.53;1.90;;;22.00;99.90;;;;;;4987067;28;20429;-81
2023/07/29 08:34:04;;;;;;;2.20;1.92;;;21.90;99.90;;;;;;4969648;28;20407;-79
2023/07/29 08:36:29;;;;;;;2.20;2.10;;;21.90;99.90;;;;;;4988554;28;20400;-81
2023/07/29 08:38:55;;;;;;;2.20;1.90;;;21.90;99.90;;;;;;4986289;28;20396;-80
2023/07/29 08:41:44;;;;;;;2.30;1.80;;;22.10;99.90;;;;;;4986018;28;20388;-83
2023/07/29 08:44:18;;;;;;;2.40;1.60;;;22.30;99.90;;;;;;4986722;28;20403;-83
2023/07/29 08:46:45;;;;;;;3.40;2.20;;;22.40;99.90;;;;;;4969093;28;20468;-81
2023/07/29 08:49:13;;;;;;;2.20;2.00;;;22.40;99.90;;;;;;4967821;28;20404;-79
2023/07/29 08:51:41;;;;;;;2.40;2.20;;;22.50;99.90;;;;;;4984396;28;20422;-81
2023/07/29 08:54:07;;;;;;;3.40;2.17;;;22.60;99.90;;;;;;4986307;28;20385;-82
2023/07/29 08:56:33;;;;;;;2.40;2.20;;;22.70;99.90;;;;;;4967647;28;20396;-82
2023/07/29 08:59:01;;;;;;;2.80;2.00;;;22.70;99.90;;;;;;4984574;28;20416;-78
2023/07/29 09:01:27;;;;;;;2.22;1.90;;;22.80;99.90;;;;;;4969991;28;20392;-82
2023/07/29 09:03:53;;;;;;;5.28;2.65;;;23.00;99.90;;;;;;4987072;28;20404;-81
2023/07/29 09:06:21;;;;;;;2.47;2.27;;;23.10;99.90;;;;;;4984523;28;20407;-81
2023/07/29 09:08:48;;;;;;;2.13;1.92;;;23.10;99.90;;;;;;4984831;28;20399;-81
2023/07/29 09:11:17;;;;;;;2.27;1.87;;;23.10;99.90;;;;;;4985034;28;20404;-81
2023/07/29 09:13:42;;;;;;;2.58;2.08;;;23.00;99.90;;;;;;4967823;28;20399;-82
2023/07/29 09:16:09;;;;;;;3.58;2.00;;;23.00;99.90;;;;;;4986332;28;20404;-82
2023/07/29 09:18:34;;;;;;;3.60;2.08;;;23.10;99.90;;;;;;4975370;28;20380;-80
2023/07/29 09:21:01;;;;;;;2.60;2.10;;;23.20;99.90;;;;;;4994890;28;20430;-79
2023/07/29 09:23:27;;;;;;;2.40;2.20;;;23.40;99.90;;;;;;4984557;28;20403;-81
2023/07/29 09:26:01;;;;;;;3.20;2.10;;;23.40;99.90;;;;;;4977232;28;20403;-79
2023/07/29 09:28:33;;;;;;;2.17;1.98;;;23.30;99.90;;;;;;4966653;28;20404;-80
2023/07/29 09:30:59;;;;;;;2.10;2.00;;;23.20;99.90;;;;;;4981769;28;20423;-80
2023/07/29 09:33:31;;;;;;;2.38;2.17;;;23.20;99.90;;;;;;4983381;28;20436;-80
2023/07/29 09:35:57;;;;;;;3.47;2.20;;;23.10;99.90;;;;;;4983032;28;20405;-82
2023/07/29 09:38:28;;;;;;;2.35;2.15;;;23.30;99.90;;;;;;4984148;28;20392;-79
2023/07/29 09:40:58;;;;;;;2.75;2.15;;;23.40;99.90;;;;;;4979419;28;20427;-81
2023/07/29 09:43:32;;;;;;;2.53;2.33;;;23.40;99.90;;;;;;4997487;28;20443;-80
2023/07/29 09:46:01;;;;;;;2.50;2.30;;;23.50;99.90;;;;;;4991747;28;20474;-82
2023/07/29 09:48:32;;;;;;;3.00;2.30;;;23.60;99.90;;;;;;4984509;28;20937;-82
2023/07/29 09:50:57;;;;;;;3.25;2.00;;;23.50;99.90;;;;;;4983049;28;20487;-79
2023/07/29 09:53:24;;;;;;;2.58;2.10;;;23.60;99.90;;;;;;4983657;28;20564;-82
2023/07/29 09:55:50;;;;;;;2.65;2.45;;;23.80;99.90;;;;;;4984638;28;20376;-81
2023/07/29 09:58:25;;;;;;;2.45;2.20;;;23.90;99.90;;;;;;4964857;28;20416;-80
2023/07/29 10:00:51;;;;;;;2.63;2.42;;;23.80;99.90;;;;;;4982771;28;20475;-81
2023/07/29 10:03:19;;;;;;;3.20;2.90;;;24.00;99.90;;;;;;4965277;28;20498;-81
2023/07/29 10:05:45;;;;;;;3.00;2.70;;;24.10;99.90;;;;;;4966311;28;20388;-82
2023/07/29 10:08:12;;;;;;;2.50;2.30;;;24.10;99.90;;;;;;4965539;28;20765;-82
2023/07/29 10:10:46;;;;;;;2.30;2.00;;;24.10;99.90;;;;;;4982951;28;20408;-82
2023/07/29 10:13:12;;;;;;;2.60;2.40;;;24.10;99.90;;;;;;4965222;28;20919;-82
2023/07/29 10:15:38;;;;;;;2.80;2.60;;;24.10;99.90;;;;;;4966605;28;20396;-82
2023/07/29 10:18:05;;;;;;;2.50;2.30;;;24.10;99.90;;;;;;4983729;28;20404;-80
2023/07/29 10:20:32;;;;;;;2.55;2.20;;;24.20;99.90;;;;;;4965021;28;20418;-82
2023/07/29 10:23:00;;;;;;;2.17;1.98;;;24.00;99.90;;;;;;4983722;28;20435;-82
2023/07/29 10:25:43;;;;;;;3.00;2.65;;;23.90;99.90;;;;;;4954867;28;20885;-82
2023/07/29 10:28:12;;;;;;;2.70;2.50;;;23.90;99.90;;;;;;4976878;28;20419;-82
2023/07/29 10:30:38;;;;;;;2.72;2.50;;;23.80;99.90;;;;;;4980648;28;20404;-83
2023/07/29 10:33:06;;;;;;;2.50;2.30;;;23.90;99.90;;;;;;4993726;28;20922;-83
2023/07/29 10:35:35;;;;;;;2.92;2.50;;;24.00;99.90;;;;;;4958746;28;20771;-83
2023/07/29 10:38:02;;;;;;;2.50;2.33;;;24.10;99.90;;;;;;4980192;28;20396;-82
2023/07/29 10:40:47;;;;;;;2.72;2.53;;;24.30;99.90;;;;;;4960467;28;20413;-82
2023/07/29 10:43:32;;;;;;;2.67;2.47;;;24.10;99.90;;;;;;4989049;28;20403;-81
2023/07/29 10:46:14;;;;;;;3.10;2.53;;;24.30;99.90;;;;;;4963793;28;20488;-82
2023/07/29 10:48:41;;;;;;;2.25;2.05;;;24.70;99.90;;;;;;4956948;28;20428;-83
2023/07/29 10:51:33;;;;;;;2.72;2.50;;;25.10;99.90;;;;;;4976853;28;20411;-82
2023/07/29 10:54:01;;;;;;;2.40;2.20;;;25.00;99.90;;;;;;4975712;28;20435;-83
2023/07/29 10:56:34;;;;;;;2.50;2.00;;;24.80;99.90;;;;;;4955030;28;20913;-83
2023/07/29 10:59:20;;;;;;;3.40;2.25;;;24.90;99.90;;;;;;4956242;28;20892;-84
2023/07/29 11:01:58;;;;;;;2.50;2.30;;;25.20;99.90;;;;;;4953975;28;20404;-81
2023/07/29 11:04:30;;;;;;;2.58;2.10;;;25.10;99.90;;;;;;4969633;28;20423;-85
2023/07/29 11:07:08;;;;;;;2.50;2.30;;;24.80;99.90;;;;;;4960194;28;20411;-84
2023/07/29 11:09:41;;;;;;;2.00;1.90;;;24.50;99.90;;;;;;4977080;28;20927;-83
2023/07/29 11:12:35;;;;;;;2.00;1.90;;;24.60;99.90;;;;;;4958939;28;20393;-86
2023/07/29 11:15:09;;;;;;;2.10;1.90;;;24.70;99.90;;;;;;4966521;28;20412;-84
2023/07/29 11:17:36;;;;;;;2.70;2.20;;;24.90;99.90;;;;;;4985216;28;20455;-84
2023/07/29 11:20:03;;;;;;;2.30;1.70;;;24.90;99.90;;;;;;4956947;28;20507;-83
2023/07/29 11:22:29;;;;;;;3.80;2.05;;;24.70;99.90;;;;;;4971954;28;20411;-83
2023/07/29 11:24:54;;;;;;;2.80;2.10;;;24.70;99.90;;;;;;4974704;28;20403;-84
2023/07/29 11:27:20;;;;;;;2.20;1.90;;;24.70;99.90;;;;;;4976834;28;20431;-85
2023/07/29 11:29:47;;;;;;;2.08;1.88;;;24.70;99.90;;;;;;4969055;28;20416;-86
2023/07/29 11:32:13;;;;;;;2.22;2.03;;;26.00;99.90;;;;;;4959068;28;20384;-85
2023/07/29 11:34:39;;;;;;;1.77;1.67;;;25.10;99.90;;;;;;4973631;28;20451;-86
2023/07/29 11:37:06;;;;;;;3.00;1.75;;;24.80;99.90;;;;;;4958189;28;20399;-85
2023/07/29 11:39:32;;;;;;;2.25;1.63;;;24.80;99.90;;;;;;4974024;28;20463;-84
2023/07/29 11:41:58;;;;;;;2.17;1.98;;;25.00;99.90;;;;;;4970486;28;20900;-83
2023/07/29 11:44:25;;;;;;;1.83;1.67;;;25.20;99.90;;;;;;4958690;28;20423;-85
2023/07/29 11:46:50;;;;;;;2.13;1.75;;;25.50;99.90;;;;;;4976384;28;20407;-85
2023/07/29 11:49:16;;;;;;;2.40;1.63;;;25.30;99.90;;;;;;4966555;28;20389;-85
2023/07/29 11:51:42;;;;;;;2.38;1.88;;;25.30;99.90;;;;;;4978101;28;20439;-84
2023/07/29 11:54:08;;;;;;;1.70;1.60;;;25.20;99.90;;;;;;4965140;28;20406;-84
2023/07/29 11:56:35;;;;;;;2.40;2.10;;;25.20;99.90;;;;;;4993667;28;20395;-81
2023/07/29 11:59:02;;;;;;;1.70;1.60;;;25.20;99.90;;;;;;4986620;28;20388;-84
2023/07/29 12:01:28;;;;;;;2.60;1.80;;;25.10;99.90;;;;;;4979227;28;20418;-84
2023/07/29 12:03:56;;;;;;;1.70;1.60;;;25.30;99.90;;;;;;4977019;28;20400;-85
2023/07/29 12:06:24;;;;;;;4.80;1.92;;;25.50;99.90;;;;;;4979188;28;20392;-84
2023/07/29 12:08:50;;;;;;;2.20;2.00;;;25.90;99.90;;;;;;4961458;28;20396;-85
2023/07/29 12:11:16;;;;;;;1.60;1.50;;;25.60;99.90;;;;;;4972522;28;20412;-85
2023/07/29 12:13:42;;;;;;;3.00;2.10;;;25.70;99.90;;;;;;4978187;28;20487;-85
2023/07/29 12:16:07;;;;;;;2.85;2.30;;;25.70;99.90;;;;;;4977775;28;20392;-84
2023/07/29 12:18:33;;;;;;;2.00;1.80;;;25.50;99.90;;;;;;4975662;28;20935;-84
2023/07/29 12:21:00;;;;;;;4.78;1.88;;;25.20;99.90;;;;;;4960413;28;20396;-85
2023/07/29 12:23:26;;;;;;;1.90;1.80;;;25.20;99.90;;;;;;4976113;28;20510;-85
2023/07/29 12:25:56;;;;;;;1.85;1.75;;;25.40;99.90;;;;;;4966418;28;20398;-87
2023/07/29 12:28:22;;;;;;;1.70;1.60;;;25.40;99.90;;;;;;4975025;28;20392;-84
2023/07/29 12:30:48;;;;;;;1.80;1.70;;;26.10;99.90;;;;;;4977615;28;20948;-85
2023/07/29 12:33:30;;;;;;;1.70;1.60;;;25.20;99.90;;;;;;4976185;28;20403;-86
2023/07/29 12:35:55;;;;;;;2.30;1.80;;;25.40;99.90;;;;;;4965746;28;20392;-85
2023/07/29 12:38:21;;;;;;;2.10;1.90;;;25.30;99.90;;;;;;4969550;28;20400;-85
2023/07/29 12:40:47;;;;;;;1.80;1.70;;;25.20;99.90;;;;;;4979563;28;20478;-82
2023/07/29 12:43:13;;;;;;;2.40;1.73;;;25.10;99.90;;;;;;4975753;28;20388;-84
2023/07/29 12:45:41;;;;;;;2.00;1.80;;;25.20;99.90;;;;;;4963556;28;20400;-86
2023/07/29 12:48:07;;;;;;;1.90;1.70;;;25.80;99.90;;;;;;4966445;28;20483;-85